Time;durP1;ratioP1;P1;durP2;ratioP2;P2;SDS_P1;SDS_P2;PMS_P1;PMS_P2;Temp;Humidity;BMP_temperature;BMP_pressure;BME280_temperature;BME280_humidity;BME280_pressure;Samples;Min_cycle;Max_cycle;Signal;HPM_P1;HPM_P2
2024/01/31 00:01:51;;;;;;;;;;;18.00;52.10;;;;;;5085776;28;43830;-81
2024/01/31 00:04:17;;;;;;;;;;;17.90;52.10;;;;;;5085895;27;43096;-80
2024/01/31 00:06:42;;;;;;;;;;;18.00;52.10;;;;;;5086078;27;42952;-81
2024/01/31 00:09:09;;;;;;;;;;;17.90;52.10;;;;;;5086677;27;42881;-80
2024/01/31 00:11:35;;;;;;;;;;;18.00;52.10;;;;;;5086268;27;43086;-80
2024/01/31 00:14:00;;;;;;;;;;;17.90;52.00;;;;;;5086982;27;42995;-80
2024/01/31 00:16:26;;;;;;;;;;;18.00;52.10;;;;;;5086470;27;42874;-80
2024/01/31 00:18:51;;;;;;;;;;;18.00;52.10;;;;;;5094995;28;42934;-79
2024/01/31 00:21:17;;;;;;;;;;;18.00;52.10;;;;;;5089099;27;42821;-78
2024/01/31 00:23:42;;;;;;;;;;;17.90;52.00;;;;;;5086440;27;42827;-80
2024/01/31 00:26:08;;;;;;;;;;;17.90;52.00;;;;;;5084583;27;45590;-79
2024/01/31 00:28:33;;;;;;;;;;;18.00;52.10;;;;;;5086435;28;43008;-80
2024/01/31 00:30:59;;;;;;;;;;;18.00;52.10;;;;;;5086483;27;43064;-80
2024/01/31 00:33:24;;;;;;;;;;;18.00;52.10;;;;;;5086590;28;43011;-80
2024/01/31 00:35:50;;;;;;;;;;;18.00;52.00;;;;;;5085626;27;43745;-80
2024/01/31 00:38:15;;;;;;;;;;;17.90;52.00;;;;;;5085916;27;42937;-79
2024/01/31 00:40:41;;;;;;;;;;;17.90;52.00;;;;;;5085552;27;43887;-80
2024/01/31 00:43:08;;;;;;;;;;;17.90;51.90;;;;;;5085335;27;42987;-80
2024/01/31 00:45:34;;;;;;;;;;;18.00;52.00;;;;;;5085434;27;43417;-80
2024/01/31 00:47:59;;;;;;;;;;;17.90;51.90;;;;;;5086580;28;43163;-80
2024/01/31 00:50:25;;;;;;;;;;;17.90;52.00;;;;;;5085826;27;43998;-79
2024/01/31 00:52:50;;;;;;;;;;;18.00;52.00;;;;;;5085142;28;42896;-81
2024/01/31 00:55:16;;;;;;;;;;;18.00;52.00;;;;;;5084978;28;43696;-80
2024/01/31 00:57:41;;;;;;;;;;;17.90;52.00;;;;;;5083560;27;43197;-79
2024/01/31 01:00:09;;;;;;;;;;;17.90;52.00;;;;;;5085189;27;43147;-80
2024/01/31 01:02:36;;;;;;;;;;;17.90;52.00;;;;;;5085206;27;43051;-80
2024/01/31 01:05:02;;;;;;;;;;;18.00;52.10;;;;;;5083505;27;45243;-80
2024/01/31 01:07:27;;;;;;;;;;;17.90;52.10;;;;;;5085359;27;42987;-79
2024/01/31 01:09:53;;;;;;;;;;;17.90;52.00;;;;;;5085848;28;43782;-80
2024/01/31 01:12:18;;;;;;;;;;;17.90;52.60;;;;;;5085470;27;42892;-80
2024/01/31 01:14:44;;;;;;;;;;;18.00;52.10;;;;;;5084787;28;43530;-80
2024/01/31 01:17:09;;;;;;;;;;;17.90;52.10;;;;;;5085519;28;43173;-79
2024/01/31 01:19:35;;;;;;;;;;;18.00;52.10;;;;;;5085212;28;42941;-80
2024/01/31 01:22:00;;;;;;;;;;;17.90;52.10;;;;;;5073648;28;42968;-80
2024/01/31 01:24:26;;;;;;;;;;;18.00;52.20;;;;;;5081757;28;43288;-81
2024/01/31 01:26:51;;;;;;;;;;;17.90;52.10;;;;;;5085442;27;43117;-81
2024/01/31 01:29:17;;;;;;;;;;;17.90;52.10;;;;;;5085183;27;42936;-79
2024/01/31 01:31:42;;;;;;;;;;;17.90;52.30;;;;;;5085278;28;42999;-79
2024/01/31 01:34:08;;;;;;;;;;;17.90;52.10;;;;;;5085168;27;43583;-81
2024/01/31 01:36:34;;;;;;;;;;;17.90;52.10;;;;;;5085717;28;43000;-80
2024/01/31 01:39:00;;;;;;;;;;;17.90;52.00;;;;;;5084557;27;43463;-80
2024/01/31 01:41:25;;;;;;;;;;;17.90;52.00;;;;;;5084791;27;42973;-80
2024/01/31 01:43:51;;;;;;;;;;;17.90;52.00;;;;;;5084136;27;43120;-80
2024/01/31 01:46:18;;;;;;;;;;;17.90;52.10;;;;;;5085007;27;43525;-81
2024/01/31 01:48:43;;;;;;;;;;;17.90;52.10;;;;;;5085147;27;42976;-80
2024/01/31 01:51:09;;;;;;;;;;;17.90;52.10;;;;;;5085290;28;42968;-79
2024/01/31 01:53:38;;;;;;;;;;;17.90;52.10;;;;;;5084437;27;43709;-81
2024/01/31 01:56:07;;;;;;;;;;;17.90;52.00;;;;;;5084973;27;43201;-79
2024/01/31 01:58:32;;;;;;;;;;;17.90;52.10;;;;;;5084567;27;43855;-80
2024/01/31 02:01:01;;;;;;;;;;;17.90;52.10;;;;;;5084385;27;42967;-79
2024/01/31 02:03:27;;;;;;;;;;;17.90;52.10;;;;;;5083250;28;42951;-79
2024/01/31 02:05:53;;;;;;;;;;;17.90;52.10;;;;;;5084603;27;42902;-80
2024/01/31 02:08:18;;;;;;;;;;;17.90;52.10;;;;;;5084489;27;42905;-79
2024/01/31 02:10:44;;;;;;;;;;;17.90;52.10;;;;;;5085267;27;42920;-79
2024/01/31 02:13:09;;;;;;;;;;;17.90;52.10;;;;;;5084238;27;43709;-79
2024/01/31 02:15:35;;;;;;;;;;;17.90;52.10;;;;;;5084164;28;43040;-79
2024/01/31 02:18:00;;;;;;;;;;;17.90;52.10;;;;;;5084271;27;42953;-80
2024/01/31 02:20:27;;;;;;;;;;;17.90;52.10;;;;;;5084132;28;43076;-79
2024/01/31 02:22:53;;;;;;;;;;;17.90;52.00;;;;;;5085362;27;42838;-79
2024/01/31 02:25:19;;;;;;;;;;;17.90;52.00;;;;;;5083930;27;43064;-80
2024/01/31 02:27:44;;;;;;;;;;;17.90;52.20;;;;;;5084695;27;43067;-80
2024/01/31 02:30:10;;;;;;;;;;;17.90;52.10;;;;;;5084151;27;43014;-81
2024/01/31 02:32:36;;;;;;;;;;;17.90;52.10;;;;;;5083764;27;42952;-78
2024/01/31 02:35:01;;;;;;;;;;;17.90;52.10;;;;;;5086076;27;43161;-80
2024/01/31 02:37:27;;;;;;;;;;;17.90;52.10;;;;;;5091946;28;43674;-78
2024/01/31 02:39:52;;;;;;;;;;;17.90;52.10;;;;;;5085173;28;42894;-79
2024/01/31 02:42:18;;;;;;;;;;;17.90;52.10;;;;;;5083876;27;43462;-79
2024/01/31 02:44:44;;;;;;;;;;;17.90;52.10;;;;;;5084618;27;43028;-78
2024/01/31 02:47:09;;;;;;;;;;;17.90;52.10;;;;;;5084521;27;43580;-77
2024/01/31 02:49:35;;;;;;;;;;;17.90;52.20;;;;;;5084501;27;42989;-79
2024/01/31 02:52:00;;;;;;;;;;;17.90;52.20;;;;;;5084020;27;43957;-79
2024/01/31 02:54:26;;;;;;;;;;;17.90;52.20;;;;;;5083761;28;43016;-79
2024/01/31 02:56:51;;;;;;;;;;;17.90;52.20;;;;;;5083359;27;44021;-79
2024/01/31 02:59:19;;;;;;;;;;;17.90;52.20;;;;;;5082420;27;42934;-79
2024/01/31 03:01:49;;;;;;;;;;;17.90;52.20;;;;;;5083592;27;43494;-80
2024/01/31 03:04:15;;;;;;;;;;;17.90;52.10;;;;;;5084491;27;42969;-79
2024/01/31 03:06:40;;;;;;;;;;;17.90;52.20;;;;;;5083344;28;43597;-79
2024/01/31 03:09:06;;;;;;;;;;;17.90;52.10;;;;;;5084176;28;43190;-79
2024/01/31 03:11:31;;;;;;;;;;;17.80;52.20;;;;;;5083036;28;42883;-79
2024/01/31 03:13:57;;;;;;;;;;;17.90;52.20;;;;;;5081915;27;42902;-79
2024/01/31 03:16:22;;;;;;;;;;;17.90;52.20;;;;;;5083435;28;43420;-79
2024/01/31 03:18:48;;;;;;;;;;;17.90;52.70;;;;;;5083690;27;42912;-79
2024/01/31 03:21:13;;;;;;;;;;;17.90;52.20;;;;;;5085074;27;44035;-80
2024/01/31 03:23:39;;;;;;;;;;;17.90;52.20;;;;;;5087116;27;43164;-77
2024/01/31 03:26:04;;;;;;;;;;;17.90;52.30;;;;;;5086102;27;42869;-77
2024/01/31 03:28:29;;;;;;;;;;;17.90;52.20;;;;;;5086781;28;42929;-80
2024/01/31 03:30:55;;;;;;;;;;;17.90;52.10;;;;;;5085147;28;42948;-80
2024/01/31 03:33:20;;;;;;;;;;;17.80;52.10;;;;;;5086557;27;42961;-79
2024/01/31 03:38:30;;;;;;;;;;;17.90;52.20;;;;;;5087478;28;42945;-79
2024/01/31 03:40:56;;;;;;;;;;;17.80;52.10;;;;;;5087053;28;44236;-78
2024/01/31 03:43:21;;;;;;;;;;;17.80;52.10;;;;;;5086797;28;42886;-79
2024/01/31 03:45:47;;;;;;;;;;;17.80;52.10;;;;;;5086381;27;42840;-79
2024/01/31 03:48:12;;;;;;;;;;;17.80;52.10;;;;;;5087120;27;42964;-77
2024/01/31 03:50:38;;;;;;;;;;;17.80;52.10;;;;;;5086611;27;43685;-80
2024/01/31 03:53:03;;;;;;;;;;;17.80;52.20;;;;;;5086935;28;42961;-80
2024/01/31 03:55:29;;;;;;;;;;;17.80;52.10;;;;;;5086721;28;43629;-78
2024/01/31 03:57:54;;;;;;;;;;;17.80;52.10;;;;;;5086891;27;42856;-79
2024/01/31 04:00:20;;;;;;;;;;;17.80;52.10;;;;;;5085846;27;43605;-77
2024/01/31 04:02:45;;;;;;;;;;;17.80;52.20;;;;;;5086909;27;43004;-78
2024/01/31 04:05:11;;;;;;;;;;;17.80;52.10;;;;;;5086578;27;43420;-77
2024/01/31 04:07:36;;;;;;;;;;;17.80;52.10;;;;;;5084996;28;43068;-80
2024/01/31 04:10:03;;;;;;;;;;;17.80;52.10;;;;;;5086138;27;42972;-79
2024/01/31 04:12:29;;;;;;;;;;;17.80;52.10;;;;;;5086311;27;42817;-79
2024/01/31 04:14:54;;;;;;;;;;;17.80;52.10;;;;;;5082316;27;43091;-79
2024/01/31 04:17:21;;;;;;;;;;;17.80;52.20;;;;;;5086209;28;42855;-78
2024/01/31 04:19:48;;;;;;;;;;;17.80;52.10;;;;;;5084611;28;44426;-79
2024/01/31 04:22:15;;;;;;;;;;;17.80;52.20;;;;;;5085980;28;43036;-79
2024/01/31 04:24:41;;;;;;;;;;;17.80;52.10;;;;;;5086153;27;43443;-80
2024/01/31 04:27:07;;;;;;;;;;;17.80;52.20;;;;;;5082622;27;42961;-78
2024/01/31 04:29:32;;;;;;;;;;;17.80;52.20;;;;;;5077432;28;42942;-79
2024/01/31 04:31:59;;;;;;;;;;;17.80;52.10;;;;;;5086062;27;43091;-80
2024/01/31 04:34:25;;;;;;;;;;;17.80;52.20;;;;;;5086412;27;43038;-79
2024/01/31 04:36:50;;;;;;;;;;;17.80;52.20;;;;;;5086228;27;42944;-78
2024/01/31 04:39:16;;;;;;;;;;;17.80;52.20;;;;;;5073188;28;43763;-78
2024/01/31 04:41:43;;;;;;;;;;;17.80;52.10;;;;;;5081667;28;43010;-78
2024/01/31 04:44:08;;;;;;;;;;;17.80;52.10;;;;;;5083553;27;42918;-80
2024/01/31 04:46:36;;;;;;;;;;;17.80;52.40;;;;;;5085232;27;43000;-79
2024/01/31 04:49:01;;;;;;;;;;;17.80;52.30;;;;;;5084261;28;44290;-79
2024/01/31 04:51:27;;;;;;;;;;;17.80;52.30;;;;;;5086722;28;43117;-79
2024/01/31 04:53:52;;;;;;;;;;;17.80;52.30;;;;;;5094301;27;43622;-77
2024/01/31 04:56:18;;;;;;;;;;;17.80;52.30;;;;;;5088216;28;42909;-78
2024/01/31 04:58:44;;;;;;;;;;;17.80;52.30;;;;;;5085270;27;43727;-79
2024/01/31 05:01:09;;;;;;;;;;;17.80;52.40;;;;;;5085941;28;43275;-78
2024/01/31 05:03:35;;;;;;;;;;;17.80;52.40;;;;;;5085100;27;43146;-78
2024/01/31 05:06:00;;;;;;;;;;;17.80;52.50;;;;;;5084128;28;42959;-77
2024/01/31 05:08:26;;;;;;;;;;;17.80;52.40;;;;;;5082012;28;44393;-79
2024/01/31 05:10:52;;;;;;;;;;;17.80;52.40;;;;;;5082349;27;43129;-80
2024/01/31 05:13:17;;;;;;;;;;;17.80;52.40;;;;;;5084138;27;42866;-78
2024/01/31 05:15:43;;;;;;;;;;;17.80;52.40;;;;;;5085075;28;43583;-79
2024/01/31 05:18:08;;;;;;;;;;;17.80;52.50;;;;;;5082567;28;44185;-79
2024/01/31 05:20:34;;;;;;;;;;;17.80;52.50;;;;;;5078255;28;43090;-78
2024/01/31 05:23:00;;;;;;;;;;;17.80;52.50;;;;;;5085620;28;43212;-78
2024/01/31 05:25:25;;;;;;;;;;;17.80;52.50;;;;;;5085576;27;42856;-79
2024/01/31 05:27:51;;;;;;;;;;;17.80;52.50;;;;;;5084607;28;43765;-79
2024/01/31 05:30:16;;;;;;;;;;;17.80;52.50;;;;;;5084917;28;42905;-79
2024/01/31 05:32:42;;;;;;;;;;;17.80;52.50;;;;;;5084430;28;43504;-78
2024/01/31 05:35:08;;;;;;;;;;;17.80;52.50;;;;;;5086762;28;42853;-80
2024/01/31 05:37:33;;;;;;;;;;;17.80;52.70;;;;;;5084568;28;42988;-78
2024/01/31 05:39:59;;;;;;;;;;;17.80;52.60;;;;;;5079910;28;43032;-78
2024/01/31 05:42:24;;;;;;;;;;;17.80;52.50;;;;;;5080383;28;43890;-78
2024/01/31 05:44:53;;;;;;;;;;;17.80;52.60;;;;;;5076306;28;42969;-78
2024/01/31 05:47:19;;;;;;;;;;;17.70;52.60;;;;;;5083049;27;44125;-78
2024/01/31 05:49:44;;;;;;;;;;;17.80;52.70;;;;;;5082461;28;42941;-79
2024/01/31 05:52:10;;;;;;;;;;;17.70;52.60;;;;;;5071305;28;42913;-77
2024/01/31 05:54:37;;;;;;;;;;;17.70;47.10;;;;;;5079771;28;43002;-78
2024/01/31 05:57:03;;;;;;;;;;;17.40;39.50;;;;;;5084665;28;43258;-78
2024/01/31 05:59:28;;;;;;;;;;;16.90;37.50;;;;;;5084467;28;42972;-78
2024/01/31 06:01:54;;;;;;;;;;;16.50;36.70;;;;;;5080314;28;44242;-77
2024/01/31 06:04:19;;;;;;;;;;;16.20;36.70;;;;;;5074836;28;42873;-77
2024/01/31 06:06:45;;;;;;;;;;;15.90;36.60;;;;;;5083635;28;43449;-78
2024/01/31 06:09:12;;;;;;;;;;;15.70;36.70;;;;;;5084439;28;43203;-76
2024/01/31 06:11:38;;;;;;;;;;;15.60;36.70;;;;;;5079714;27;43108;-75
2024/01/31 06:14:03;;;;;;;;;;;15.50;36.30;;;;;;5081652;28;42934;-77
2024/01/31 06:16:29;;;;;;;;;;;15.30;36.00;;;;;;5083783;28;43028;-78
2024/01/31 06:18:57;;;;;;;;;;;15.20;36.00;;;;;;5084575;27;43178;-78
2024/01/31 06:21:23;;;;;;;;;;;15.10;36.20;;;;;;5082144;28;44380;-76
2024/01/31 06:23:49;;;;;;;;;;;15.00;36.30;;;;;;5083099;28;42983;-76
2024/01/31 06:26:14;;;;;;;;;;;14.90;36.10;;;;;;5084211;27;42969;-78
2024/01/31 06:28:40;;;;;;;;;;;14.90;36.10;;;;;;5083806;27;43011;-78
2024/01/31 06:31:15;;;;;;;;;;;14.70;35.50;;;;;;5083576;27;43040;-79
2024/01/31 06:33:41;;;;;;;;;;;14.70;36.10;;;;;;5063892;27;42946;-77
2024/01/31 06:36:07;;;;;;;;;;;14.60;36.00;;;;;;5084017;27;42917;-78
2024/01/31 06:38:33;;;;;;;;;;;14.60;36.10;;;;;;5083321;28;43015;-77
2024/01/31 06:40:58;;;;;;;;;;;14.60;36.20;;;;;;5083141;27;43154;-76
2024/01/31 06:43:27;;;;;;;;;;;14.50;36.00;;;;;;5083275;27;42992;-78
2024/01/31 06:45:53;;;;;;;;;;;14.40;36.00;;;;;;5082034;27;43021;-79
2024/01/31 06:48:19;;;;;;;;;;;14.40;36.50;;;;;;5083783;27;42935;-76
2024/01/31 06:50:44;;;;;;;;;;;14.50;38.00;;;;;;5084301;27;43020;-79
2024/01/31 06:53:10;;;;;;;;;;;14.70;38.90;;;;;;5083593;28;43140;-77
2024/01/31 06:55:36;;;;;;;;;;;14.90;39.60;;;;;;5086520;27;42940;-79
2024/01/31 06:58:01;;;;;;;;;;;15.20;39.60;;;;;;5086086;28;42944;-78
2024/01/31 07:00:27;;;;;;;;;;;15.40;40.30;;;;;;5087116;28;43614;-79
2024/01/31 07:02:53;;;;;;;;;;;15.60;40.80;;;;;;5087565;27;42948;-77
2024/01/31 07:05:19;;;;;;;;;;;15.70;41.10;;;;;;5087840;27;42960;-79
2024/01/31 07:07:44;;;;;;;;;;;15.80;41.20;;;;;;5088767;28;42917;-76
2024/01/31 07:10:10;;;;;;;;;;;15.90;41.60;;;;;;5092469;28;43698;-77
2024/01/31 07:12:35;;;;;;;;;;;16.10;41.80;;;;;;5094886;28;42886;-79
2024/01/31 07:15:01;;;;;;;;;;;16.10;42.00;;;;;;5087695;28;42872;-79
2024/01/31 07:17:27;;;;;;;;;;;16.20;42.30;;;;;;5087515;27;42867;-78
2024/01/31 07:19:53;;;;;;;;;;;16.30;42.60;;;;;;5087061;27;43918;-77
2024/01/31 07:22:18;;;;;;;;;;;16.30;42.80;;;;;;5087655;27;42901;-78
2024/01/31 07:24:44;;;;;;;;;;;16.30;43.00;;;;;;5103016;27;45434;-77
2024/01/31 07:27:09;;;;;;;;;;;16.40;43.20;;;;;;5088000;28;42961;-78
2024/01/31 07:29:35;;;;;;;;;;;16.40;43.40;;;;;;5086966;27;43730;-79
2024/01/31 07:32:00;;;;;;;;;;;16.50;43.70;;;;;;5087743;27;42960;-77
2024/01/31 07:34:26;;;;;;;;;;;16.50;43.70;;;;;;5087413;27;43735;-80
2024/01/31 07:36:52;;;;;;;;;;;16.50;43.90;;;;;;5087735;27;42956;-77
2024/01/31 07:39:17;;;;;;;;;;;16.50;44.00;;;;;;5086766;27;43898;-79
2024/01/31 07:41:46;;;;;;;;;;;16.60;44.10;;;;;;5086759;28;43006;-77
2024/01/31 07:44:11;;;;;;;;;;;16.50;44.30;;;;;;5086583;27;43050;-79
2024/01/31 07:46:37;;;;;;;;;;;16.60;44.50;;;;;;5087226;28;42980;-76
2024/01/31 07:49:06;;;;;;;;;;;16.60;44.60;;;;;;5086709;27;43439;-77
2024/01/31 07:51:31;;;;;;;;;;;16.60;44.60;;;;;;5086993;27;43022;-79
2024/01/31 07:53:57;;;;;;;;;;;16.70;44.90;;;;;;5086945;27;42981;-79
2024/01/31 07:56:22;;;;;;;;;;;16.70;45.00;;;;;;5087160;28;42969;-79
2024/01/31 07:58:48;;;;;;;;;;;16.70;45.10;;;;;;5085936;28;43672;-77
2024/01/31 08:01:13;;;;;;;;;;;16.70;45.10;;;;;;5086840;28;42953;-79
2024/01/31 08:03:41;;;;;;;;;;;16.70;45.30;;;;;;5102754;27;44530;-77
2024/01/31 08:06:07;;;;;;;;;;;16.70;45.40;;;;;;5085040;28;42940;-79
2024/01/31 08:08:32;;;;;;;;;;;16.80;45.50;;;;;;5080242;27;43351;-80
2024/01/31 08:10:59;;;;;;;;;;;16.80;45.60;;;;;;5078822;28;42937;-79
2024/01/31 08:13:25;;;;;;;;;;;16.80;45.70;;;;;;5086113;27;43033;-79
2024/01/31 08:15:51;;;;;;;;;;;16.70;45.70;;;;;;5086627;28;42870;-79
2024/01/31 08:18:16;;;;;;;;;;;16.80;45.90;;;;;;5086573;28;43108;-80
2024/01/31 08:20:42;;;;;;;;;;;16.80;46.00;;;;;;5087007;28;42861;-79
2024/01/31 08:23:07;;;;;;;;;;;16.80;46.00;;;;;;5086005;28;43904;-79
2024/01/31 08:25:33;;;;;;;;;;;16.80;46.00;;;;;;5085971;27;43144;-79
2024/01/31 08:27:58;;;;;;;;;;;16.80;46.10;;;;;;5086718;28;43409;-79
2024/01/31 08:30:24;;;;;;;;;;;16.80;46.20;;;;;;5086576;27;43007;-79
2024/01/31 08:32:49;;;;;;;;;;;16.80;46.30;;;;;;5084556;27;44478;-79
2024/01/31 08:35:15;;;;;;;;;;;16.80;46.30;;;;;;5086339;28;42969;-80
2024/01/31 08:37:40;;;;;;;;;;;16.80;46.50;;;;;;5086201;28;43035;-79
2024/01/31 08:40:09;;;;;;;;;;;16.80;46.50;;;;;;5086151;28;42773;-79
2024/01/31 08:42:36;;;;;;;;;;;16.80;46.50;;;;;;5086165;28;43700;-80
2024/01/31 08:45:02;;;;;;;;;;;16.80;46.60;;;;;;5085377;28;43071;-79
2024/01/31 08:47:27;;;;;;;;;;;16.80;46.70;;;;;;5086077;27;43432;-80
2024/01/31 08:49:53;;;;;;;;;;;16.80;46.80;;;;;;5086194;28;42916;-80
2024/01/31 08:52:18;;;;;;;;;;;16.80;46.70;;;;;;5085991;27;43012;-79
2024/01/31 08:54:44;;;;;;;;;;;16.80;46.80;;;;;;5085848;27;43277;-80
2024/01/31 08:57:10;;;;;;;;;;;16.80;46.80;;;;;;5085279;28;42943;-79
2024/01/31 08:59:36;;;;;;;;;;;16.80;46.90;;;;;;5086324;28;42949;-78
2024/01/31 09:02:01;;;;;;;;;;;16.80;47.00;;;;;;5085962;28;43065;-79
2024/01/31 09:04:27;;;;;;;;;;;16.80;47.00;;;;;;5084655;27;43008;-78
2024/01/31 09:06:52;;;;;;;;;;;16.80;47.00;;;;;;5085489;27;43469;-79
2024/01/31 09:09:18;;;;;;;;;;;16.80;47.10;;;;;;5085679;28;42958;-78
2024/01/31 09:11:44;;;;;;;;;;;16.80;47.00;;;;;;5085284;28;42928;-80
2024/01/31 09:14:09;;;;;;;;;;;16.80;47.20;;;;;;5085962;27;42976;-79
2024/01/31 09:16:35;;;;;;;;;;;16.90;47.20;;;;;;5085582;28;43069;-79
2024/01/31 09:19:01;;;;;;;;;;;16.90;47.20;;;;;;5084941;27;42943;-78
2024/01/31 09:21:27;;;;;;;;;;;16.80;47.20;;;;;;5084906;28;43622;-78
2024/01/31 09:23:56;;;;;;;;;;;16.90;47.40;;;;;;5086227;28;43006;-79
2024/01/31 09:26:21;;;;;;;;;;;16.80;47.30;;;;;;5089243;27;42896;-77
2024/01/31 09:28:47;;;;;;;;;;;16.80;47.30;;;;;;5092641;28;43543;-80
2024/01/31 09:31:22;;;;;;;;;;;16.90;47.40;;;;;;5085151;27;43471;-80
2024/01/31 09:33:48;;;;;;;;;;;16.90;47.40;;;;;;5085107;27;44071;-80
2024/01/31 09:36:14;;;;;;;;;;;16.90;47.40;;;;;;5085035;27;43096;-79
2024/01/31 09:38:39;;;;;;;;;;;16.90;47.50;;;;;;5084838;27;42916;-79
2024/01/31 09:41:05;;;;;;;;;;;16.90;47.40;;;;;;5085321;27;43603;-79
2024/01/31 09:43:31;;;;;;;;;;;16.90;47.50;;;;;;5085431;27;42843;-78
2024/01/31 09:45:56;;;;;;;;;;;16.90;47.50;;;;;;5072382;28;43436;-79
2024/01/31 09:48:23;;;;;;;;;;;16.90;47.60;;;;;;5085143;27;43180;-80
2024/01/31 09:50:48;;;;;;;;;;;16.90;47.60;;;;;;5084561;27;42797;-80
2024/01/31 09:53:14;;;;;;;;;;;16.90;47.50;;;;;;5084866;28;43273;-79
2024/01/31 09:55:41;;;;;;;;;;;16.90;47.70;;;;;;5084732;27;42965;-79
2024/01/31 09:58:06;;;;;;;;;;;16.90;47.60;;;;;;5084686;27;42855;-79
2024/01/31 10:00:32;;;;;;;;;;;16.90;47.60;;;;;;5084739;27;43997;-79
2024/01/31 10:02:58;;;;;;;;;;;16.90;47.60;;;;;;5085238;27;42973;-78
2024/01/31 10:05:23;;;;;;;;;;;16.90;47.70;;;;;;5084632;27;43467;-80
2024/01/31 10:07:49;;;;;;;;;;;16.90;47.80;;;;;;5084435;27;42853;-79
2024/01/31 10:10:15;;;;;;;;;;;16.90;47.80;;;;;;5084239;27;43363;-79
2024/01/31 10:12:40;;;;;;;;;;;16.90;47.80;;;;;;5085209;27;42878;-79
2024/01/31 10:15:09;;;;;;;;;;;16.90;47.80;;;;;;5084599;27;42783;-79
2024/01/31 10:17:35;;;;;;;;;;;16.90;47.80;;;;;;5084875;27;42980;-78
2024/01/31 10:20:06;;;;;;;;;;;16.90;47.90;;;;;;5084427;27;43570;-80
2024/01/31 10:22:33;;;;;;;;;;;16.90;47.90;;;;;;5084564;27;42988;-79
2024/01/31 10:24:58;;;;;;;;;;;16.90;47.90;;;;;;5084881;27;43993;-78
2024/01/31 10:27:24;;;;;;;;;;;16.90;48.20;;;;;;5084652;27;42890;-79
2024/01/31 10:29:52;;;;;;;;;;;16.90;47.90;;;;;;5089298;27;42977;-78
2024/01/31 10:32:20;;;;;;;;;;;17.00;48.00;;;;;;5091760;27;42880;-78
2024/01/31 10:34:46;;;;;;;;;;;16.90;48.00;;;;;;5083474;27;42890;-80
2024/01/31 10:37:12;;;;;;;;;;;16.90;48.00;;;;;;5086797;28;42949;-79
2024/01/31 10:39:39;;;;;;;;;;;16.90;48.00;;;;;;5091125;27;43385;-80
2024/01/31 10:42:04;;;;;;;;;;;16.90;48.00;;;;;;5091490;27;42986;-80
2024/01/31 10:44:31;;;;;;;;;;;16.90;48.50;;;;;;5090533;28;43047;-80
2024/01/31 10:46:57;;;;;;;;;;;16.90;48.00;;;;;;5090585;27;42873;-79
2024/01/31 10:49:22;;;;;;;;;;;16.90;48.00;;;;;;5091434;28;42936;-80
2024/01/31 10:51:50;;;;;;;;;;;16.90;48.10;;;;;;5091236;27;43020;-79
2024/01/31 10:54:16;;;;;;;;;;;17.00;48.10;;;;;;5090865;28;43080;-79
2024/01/31 10:56:42;;;;;;;;;;;16.90;48.10;;;;;;5090184;27;42981;-79
2024/01/31 10:59:07;;;;;;;;;;;16.90;48.10;;;;;;5091532;28;43530;-78
2024/01/31 11:01:33;;;;;;;;;;;16.90;48.20;;;;;;5091456;27;43026;-79
2024/01/31 11:04:01;;;;;;;;;;;16.90;48.20;;;;;;5090976;28;43699;-79
2024/01/31 11:06:30;;;;;;;;;;;16.90;48.20;;;;;;5090186;27;42994;-79
2024/01/31 11:08:58;;;;;;;;;;;16.90;48.20;;;;;;5091301;27;42939;-79
2024/01/31 11:11:24;;;;;;;;;;;16.90;48.40;;;;;;5090752;27;42932;-79
2024/01/31 11:13:56;;;;;;;;;;;16.90;48.20;;;;;;5091034;28;43010;-79
2024/01/31 11:16:25;;;;;;;;;;;16.90;48.20;;;;;;5090470;28;43167;-80
2024/01/31 11:18:51;;;;;;;;;;;17.00;48.20;;;;;;5090159;27;43536;-79
2024/01/31 11:21:17;;;;;;;;;;;17.00;48.30;;;;;;5090045;27;42866;-79
2024/01/31 11:23:42;;;;;;;;;;;16.90;48.20;;;;;;5090115;27;43588;-81
2024/01/31 11:26:08;;;;;;;;;;;16.90;48.20;;;;;;5090241;27;42925;-79
2024/01/31 11:28:39;;;;;;;;;;;16.90;48.40;;;;;;5089024;28;45970;-80
2024/01/31 11:31:04;;;;;;;;;;;17.00;48.30;;;;;;5090828;28;42854;-79
2024/01/31 11:33:30;;;;;;;;;;;17.00;48.40;;;;;;5090547;27;43187;-78
2024/01/31 11:35:56;;;;;;;;;;;16.90;48.30;;;;;;5090566;27;42917;-79
2024/01/31 11:38:21;;;;;;;;;;;17.00;48.40;;;;;;5090423;27;42885;-79
2024/01/31 11:40:47;;;;;;;;;;;16.90;48.40;;;;;;5087072;27;42953;-79
2024/01/31 11:43:14;;;;;;;;;;;17.00;48.50;;;;;;5088308;27;43795;-79
2024/01/31 11:45:39;;;;;;;;;;;17.00;48.50;;;;;;5093656;27;42968;-78
2024/01/31 11:48:05;;;;;;;;;;;17.00;48.40;;;;;;5087582;27;42930;-79
2024/01/31 11:50:31;;;;;;;;;;;17.00;48.40;;;;;;5087328;27;43345;-79
2024/01/31 11:52:57;;;;;;;;;;;15.70;47.90;;;;;;5087124;28;43904;-79
2024/01/31 11:55:23;;;;;;;;;;;17.00;48.50;;;;;;5083006;27;43012;-79
2024/01/31 11:57:49;;;;;;;;;;;17.00;48.50;;;;;;5078277;28;43524;-80
2024/01/31 12:00:16;;;;;;;;;;;17.00;48.50;;;;;;5086754;27;43021;-79
2024/01/31 12:02:41;;;;;;;;;;;17.00;48.50;;;;;;5087051;27;43333;-79
2024/01/31 12:05:07;;;;;;;;;;;17.00;48.50;;;;;;5086880;28;43044;-79
2024/01/31 12:07:33;;;;;;;;;;;17.00;48.50;;;;;;5086400;27;43403;-77
2024/01/31 12:09:59;;;;;;;;;;;17.00;48.50;;;;;;5086041;27;42909;-78
2024/01/31 12:12:26;;;;;;;;;;;17.00;48.50;;;;;;5086375;27;43012;-77
2024/01/31 12:14:53;;;;;;;;;;;17.00;49.20;;;;;;5085838;27;43151;-80
2024/01/31 12:17:25;;;;;;;;;;;17.00;48.50;;;;;;5086397;27;43882;-79
2024/01/31 12:20:01;;;;;;;;;;;17.00;48.50;;;;;;5085941;27;42954;-77
2024/01/31 12:22:26;;;;;;;;;;;17.00;48.50;;;;;;5086894;27;43673;-80
2024/01/31 12:24:52;;;;;;;;;;;17.00;48.60;;;;;;5085786;27;43061;-79
2024/01/31 12:27:17;;;;;;;;;;;17.00;48.60;;;;;;5084706;28;43620;-79
2024/01/31 12:29:46;;;;;;;;;;;16.90;48.60;;;;;;5086513;27;43018;-79
2024/01/31 12:32:12;;;;;;;;;;;17.00;48.70;;;;;;5086530;27;43548;-79
2024/01/31 12:34:37;;;;;;;;;;;17.00;48.70;;;;;;5086195;27;43008;-80
2024/01/31 12:37:03;;;;;;;;;;;17.00;48.70;;;;;;5086628;28;43864;-78
2024/01/31 12:39:28;;;;;;;;;;;17.00;48.60;;;;;;5085809;27;42902;-78
2024/01/31 12:41:54;;;;;;;;;;;17.00;48.70;;;;;;5085869;28;43494;-79
2024/01/31 12:44:19;;;;;;;;;;;17.00;48.70;;;;;;5072612;27;42891;-79
2024/01/31 12:46:45;;;;;;;;;;;17.00;48.70;;;;;;5085948;28;42825;-78
2024/01/31 12:49:11;;;;;;;;;;;17.00;49.20;;;;;;5084827;27;43187;-79
2024/01/31 12:51:36;;;;;;;;;;;17.00;48.70;;;;;;5085525;28;43629;-78
2024/01/31 12:54:02;;;;;;;;;;;17.00;48.70;;;;;;5085472;27;42973;-80
2024/01/31 12:56:28;;;;;;;;;;;17.00;48.80;;;;;;5086611;27;42861;-80
2024/01/31 12:58:55;;;;;;;;;;;17.00;48.80;;;;;;5084279;27;43119;-79
2024/01/31 13:01:21;;;;;;;;;;;17.00;48.70;;;;;;5085667;27;42838;-80
2024/01/31 13:03:46;;;;;;;;;;;17.00;48.80;;;;;;5085401;27;42902;-79
2024/01/31 13:06:12;;;;;;;;;;;17.00;48.80;;;;;;5085851;27;43571;-77
2024/01/31 13:08:37;;;;;;;;;;;17.00;48.80;;;;;;5085867;27;42881;-79
2024/01/31 13:11:03;;;;;;;;;;;17.00;48.80;;;;;;5085333;27;42899;-77
2024/01/31 13:13:29;;;;;;;;;;;17.00;48.70;;;;;;5085480;27;42990;-79
2024/01/31 13:15:54;;;;;;;;;;;17.00;48.80;;;;;;5085628;27;42960;-79
2024/01/31 13:18:20;;;;;;;;;;;17.00;48.80;;;;;;5085754;27;42951;-78
2024/01/31 13:20:46;;;;;;;;;;;17.00;48.80;;;;;;5085577;27;43097;-80
2024/01/31 13:23:11;;;;;;;;;;;17.00;48.80;;;;;;5085335;27;42991;-79
2024/01/31 13:25:37;;;;;;;;;;;17.00;48.90;;;;;;5085372;27;42942;-79
2024/01/31 13:28:02;;;;;;;;;;;17.00;48.90;;;;;;5085418;28;42984;-80
2024/01/31 13:30:28;;;;;;;;;;;17.00;48.90;;;;;;5086059;28;42923;-79
2024/01/31 13:32:53;;;;;;;;;;;17.00;48.90;;;;;;5085375;27;43634;-79
2024/01/31 13:35:19;;;;;;;;;;;17.00;48.90;;;;;;5085631;28;43601;-79
2024/01/31 13:37:44;;;;;;;;;;;17.00;48.90;;;;;;5085306;27;43077;-78
2024/01/31 13:40:10;;;;;;;;;;;17.00;48.90;;;;;;5085228;27;43124;-79
2024/01/31 13:42:36;;;;;;;;;;;17.00;49.00;;;;;;5085138;27;42940;-80
2024/01/31 13:45:01;;;;;;;;;;;17.00;49.00;;;;;;5084736;27;43089;-79
2024/01/31 13:47:28;;;;;;;;;;;17.00;48.90;;;;;;5084805;27;43071;-79
2024/01/31 13:49:53;;;;;;;;;;;17.00;49.00;;;;;;5085562;27;43410;-78
2024/01/31 13:52:19;;;;;;;;;;;17.00;49.00;;;;;;5083996;27;42932;-79
2024/01/31 13:54:44;;;;;;;;;;;17.00;49.00;;;;;;5084560;27;43065;-79
2024/01/31 13:57:11;;;;;;;;;;;17.00;49.00;;;;;;5084284;28;43446;-79
2024/01/31 13:59:36;;;;;;;;;;;17.00;49.00;;;;;;5085028;27;44686;-78
2024/01/31 14:02:03;;;;;;;;;;;17.00;49.00;;;;;;5090365;27;42933;-79
2024/01/31 14:04:29;;;;;;;;;;;17.00;48.90;;;;;;5084906;27;42959;-77
2024/01/31 14:06:54;;;;;;;;;;;17.00;49.00;;;;;;5085144;27;43006;-77
2024/01/31 14:09:21;;;;;;;;;;;17.00;49.20;;;;;;5100478;27;43932;-79
2024/01/31 14:11:47;;;;;;;;;;;17.00;49.00;;;;;;5084454;28;43790;-78